Kruibeke, Belgium
Current Conditions -  °F | °C
As of 11:20 PM on Sunday 21 Dec 2014 (Local Time) from EBAW Reporting Station
Overcast Overcast  
Wind Chill:   Ceiling: 1000
Heat Index:   Visibility: 6mi
Dew Point:   Wind: 20mph
Humidity: 87%   Direction: 220°SW
Pressure: 30.21"   Gusts: NA
Location:  51.17°N, 4.31°E
Report Text: EBAW 212220Z AUTO 22017KT 9999 OVC010/// 08/06 Q1023
Loading
Personal Weather Stations






























Interactive Weather Map New forecast layout! Learn more

10-Day Weather Forecast

Advertisements
Track Severe Weather on mobile